sensor_id;sensor_type;location;lat;lon;timestamp;temperature;humidity
18794;DHT22;29610;49.022;12.114;2022-08-01T05:19:20;19.70;87.60
18794;DHT22;29610;49.022;12.114;2022-08-01T05:37:10;21.20;87.50
18794;DHT22;29610;49.022;12.114;2022-08-01T05:39:39;21.40;86.00
18794;DHT22;29610;49.022;12.114;2022-08-01T05:42:07;21.60;85.90
18794;DHT22;29610;49.022;12.114;2022-08-01T05:44:36;21.80;84.80
18794;DHT22;29610;49.022;12.114;2022-08-01T05:47:05;21.80;83.60
18794;DHT22;29610;49.022;12.114;2022-08-01T05:49:33;21.80;82.70
18794;DHT22;29610;49.022;12.114;2022-08-01T05:52:02;21.80;83.10
18794;DHT22;29610;49.022;12.114;2022-08-01T05:54:33;21.90;82.70
18794;DHT22;29610;49.022;12.114;2022-08-01T05:57:02;22.10;83.60
18794;DHT22;29610;49.022;12.114;2022-08-01T05:59:31;22.10;83.40
18794;DHT22;29610;49.022;12.114;2022-08-01T06:02:00;22.20;84.10
18794;DHT22;29610;49.022;12.114;2022-08-01T06:04:32;22.40;83.30
18794;DHT22;29610;49.022;12.114;2022-08-01T06:07:01;22.60;82.00
18794;DHT22;29610;49.022;12.114;2022-08-01T06:09:29;22.80;82.30
18794;DHT22;29610;49.022;12.114;2022-08-01T06:12:00;23.10;80.60
18794;DHT22;29610;49.022;12.114;2022-08-01T06:14:43;23.20;79.40
18794;DHT22;29610;49.022;12.114;2022-08-01T06:18:08;23.40;79.80
18794;DHT22;29610;49.022;12.114;2022-08-01T06:26:05;23.50;78.70
18794;DHT22;29610;49.022;12.114;2022-08-01T06:30:12;23.90;77.90
18794;DHT22;29610;49.022;12.114;2022-08-01T06:33:30;24.00;77.80
18794;DHT22;29610;49.022;12.114;2022-08-01T06:36:05;24.40;76.00
18794;DHT22;29610;49.022;12.114;2022-08-01T06:38:36;24.40;75.70
18794;DHT22;29610;49.022;12.114;2022-08-01T06:48:07;24.60;75.10
18794;DHT22;29610;49.022;12.114;2022-08-01T06:51:29;25.20;75.80
18794;DHT22;29610;49.022;12.114;2022-08-01T06:54:15;24.80;74.80
18794;DHT22;29610;49.022;12.114;2022-08-01T07:02:08;24.90;74.90
18794;DHT22;29610;49.022;12.114;2022-08-01T07:05:59;26.10;75.30
18794;DHT22;29610;49.022;12.114;2022-08-01T07:08:44;25.30;73.40
18794;DHT22;29610;49.022;12.114;2022-08-01T07:22:59;25.80;70.00
18794;DHT22;29610;49.022;12.114;2022-08-01T07:25:41;26.50;70.50
18794;DHT22;29610;49.022;12.114;2022-08-01T07:30:26;26.20;70.30
18794;DHT22;29610;49.022;12.114;2022-08-01T07:33:41;25.70;71.20
18794;DHT22;29610;49.022;12.114;2022-08-01T07:36:40;25.40;72.60
18794;DHT22;29610;49.022;12.114;2022-08-01T07:52:18;24.90;70.70
18794;DHT22;29610;49.022;12.114;2022-08-01T07:55:30;26.70;70.90
18794;DHT22;29610;49.022;12.114;2022-08-01T07:58:07;25.90;68.90
18794;DHT22;29610;49.022;12.114;2022-08-01T08:01:32;27.10;69.60
18794;DHT22;29610;49.022;12.114;2022-08-01T08:05:10;26.90;69.90
18794;DHT22;29610;49.022;12.114;2022-08-01T08:07:46;26.60;70.00
18794;DHT22;29610;49.022;12.114;2022-08-01T08:12:01;26.50;70.40
18794;DHT22;29610;49.022;12.114;2022-08-01T08:16:34;26.10;69.80
18794;DHT22;29610;49.022;12.114;2022-08-01T08:19:46;27.60;68.00
18794;DHT22;29610;49.022;12.114;2022-08-01T08:23:54;28.10;67.20
18794;DHT22;29610;49.022;12.114;2022-08-01T08:27:10;27.90;65.00
18794;DHT22;29610;49.022;12.114;2022-08-01T08:29:59;28.80;63.90
18794;DHT22;29610;49.022;12.114;2022-08-01T08:38:18;29.00;63.30
18794;DHT22;29610;49.022;12.114;2022-08-01T09:39:37;30.30;57.60
18794;DHT22;29610;49.022;12.114;2022-08-01T09:47:54;30.50;57.90
18794;DHT22;29610;49.022;12.114;2022-08-01T10:24:15;28.20;56.60
18794;DHT22;29610;49.022;12.114;2022-08-01T10:26:47;30.30;55.50
18794;DHT22;29610;49.022;12.114;2022-08-01T10:29:20;30.50;54.80
18794;DHT22;29610;49.022;12.114;2022-08-01T10:32:10;30.20;55.20
18794;DHT22;29610;49.022;12.114;2022-08-01T10:34:39;29.70;55.00
18794;DHT22;29610;49.022;12.114;2022-08-01T10:37:13;29.50;55.00
18794;DHT22;29610;49.022;12.114;2022-08-01T10:39:50;29.50;56.20
18794;DHT22;29610;49.022;12.114;2022-08-01T10:42:41;30.10;56.10
18794;DHT22;29610;49.022;12.114;2022-08-01T10:45:13;31.40;54.30
18794;DHT22;29610;49.022;12.114;2022-08-01T10:47:48;32.20;51.60
18794;DHT22;29610;49.022;12.114;2022-08-01T10:50:30;32.30;51.50
18794;DHT22;29610;49.022;12.114;2022-08-01T10:53:11;31.80;51.80
18794;DHT22;29610;49.022;12.114;2022-08-01T10:56:04;31.40;53.00
18794;DHT22;29610;49.022;12.114;2022-08-01T10:58:44;31.00;52.30
18794;DHT22;29610;49.022;12.114;2022-08-01T11:01:25;30.20;53.30
18794;DHT22;29610;49.022;12.114;2022-08-01T11:04:07;29.50;54.90
18794;DHT22;29610;49.022;12.114;2022-08-01T11:06:54;29.10;55.80
18794;DHT22;29610;49.022;12.114;2022-08-01T11:10:19;29.00;57.00
18794;DHT22;29610;49.022;12.114;2022-08-01T11:13:09;27.60;57.10
18794;DHT22;29610;49.022;12.114;2022-08-01T11:15:50;28.10;58.80
18794;DHT22;29610;49.022;12.114;2022-08-01T11:18:58;27.40;58.40
18794;DHT22;29610;49.022;12.114;2022-08-01T11:22:00;29.20;59.90
18794;DHT22;29610;49.022;12.114;2022-08-01T11:24:56;28.60;58.50
18794;DHT22;29610;49.022;12.114;2022-08-01T11:27:29;29.00;57.70
18794;DHT22;29610;49.022;12.114;2022-08-01T11:30:23;29.10;57.00
18794;DHT22;29610;49.022;12.114;2022-08-01T11:32:57;28.60;58.40
18794;DHT22;29610;49.022;12.114;2022-08-01T11:36:16;29.10;58.40
18794;DHT22;29610;49.022;12.114;2022-08-01T11:39:21;30.70;55.40
18794;DHT22;29610;49.022;12.114;2022-08-01T11:41:50;31.50;53.40
18794;DHT22;29610;49.022;12.114;2022-08-01T11:44:23;31.80;52.90
18794;DHT22;29610;49.022;12.114;2022-08-01T11:47:02;31.30;52.50
18794;DHT22;29610;49.022;12.114;2022-08-01T11:49:47;31.80;51.80
18794;DHT22;29610;49.022;12.114;2022-08-01T11:52:26;31.70;52.10
18794;DHT22;29610;49.022;12.114;2022-08-01T11:54:57;31.40;52.30
18794;DHT22;29610;49.022;12.114;2022-08-01T11:57:38;31.20;52.80
18794;DHT22;29610;49.022;12.114;2022-08-01T12:00:11;31.30;52.00
18794;DHT22;29610;49.022;12.114;2022-08-01T12:02:46;31.50;51.70
18794;DHT22;29610;49.022;12.114;2022-08-01T12:05:16;31.70;51.70
18794;DHT22;29610;49.022;12.114;2022-08-01T12:07:51;32.50;50.20
18794;DHT22;29610;49.022;12.114;2022-08-01T12:10:27;32.50;49.80
18794;DHT22;29610;49.022;12.114;2022-08-01T12:13:01;31.50;50.30
18794;DHT22;29610;49.022;12.114;2022-08-01T12:15:33;30.40;53.30
18794;DHT22;29610;49.022;12.114;2022-08-01T12:18:05;29.90;54.70
18794;DHT22;29610;49.022;12.114;2022-08-01T12:20:36;29.30;55.50
18794;DHT22;29610;49.022;12.114;2022-08-01T12:23:16;29.20;56.50
18794;DHT22;29610;49.022;12.114;2022-08-01T12:25:51;28.80;56.90
18794;DHT22;29610;49.022;12.114;2022-08-01T12:28:21;28.40;57.80
18794;DHT22;29610;49.022;12.114;2022-08-01T12:30:50;28.50;58.30
18794;DHT22;29610;49.022;12.114;2022-08-01T12:33:21;28.50;58.10
18794;DHT22;29610;49.022;12.114;2022-08-01T12:35:50;28.70;57.90
18794;DHT22;29610;49.022;12.114;2022-08-01T12:38:21;28.80;58.20
18794;DHT22;29610;49.022;12.114;2022-08-01T12:40:52;28.60;57.50
18794;DHT22;29610;49.022;12.114;2022-08-01T12:43:22;28.20;58.20
18794;DHT22;29610;49.022;12.114;2022-08-01T12:45:58;28.30;58.50
18794;DHT22;29610;49.022;12.114;2022-08-01T12:48:34;28.60;57.20
18794;DHT22;29610;49.022;12.114;2022-08-01T12:51:06;29.00;57.40
18794;DHT22;29610;49.022;12.114;2022-08-01T12:53:36;29.40;55.90
18794;DHT22;29610;49.022;12.114;2022-08-01T12:56:08;30.30;55.20
18794;DHT22;29610;49.022;12.114;2022-08-01T12:58:41;30.70;54.00
18794;DHT22;29610;49.022;12.114;2022-08-01T13:01:11;31.30;52.60
18794;DHT22;29610;49.022;12.114;2022-08-01T13:03:57;31.50;52.30
18794;DHT22;29610;49.022;12.114;2022-08-01T13:06:29;32.60;51.60
18794;DHT22;29610;49.022;12.114;2022-08-01T13:14:53;32.90;50.30
18794;DHT22;29610;49.022;12.114;2022-08-01T13:36:17;32.50;49.90
18794;DHT22;29610;49.022;12.114;2022-08-01T13:38:54;32.10;49.30
18794;DHT22;29610;49.022;12.114;2022-08-01T13:41:41;32.40;49.60
18794;DHT22;29610;49.022;12.114;2022-08-01T13:44:10;33.10;48.20
18794;DHT22;29610;49.022;12.114;2022-08-01T13:46:41;33.40;47.70
18794;DHT22;29610;49.022;12.114;2022-08-01T13:49:17;33.90;46.00
18794;DHT22;29610;49.022;12.114;2022-08-01T13:52:00;34.40;46.10
18794;DHT22;29610;49.022;12.114;2022-08-01T13:58:51;34.70;44.30
18794;DHT22;29610;49.022;12.114;2022-08-01T14:01:36;34.70;43.80
18794;DHT22;29610;49.022;12.114;2022-08-01T14:04:09;33.00;43.70
18794;DHT22;29610;49.022;12.114;2022-08-01T14:06:38;34.20;43.90
18794;DHT22;29610;49.022;12.114;2022-08-01T14:09:08;33.80;44.30
18794;DHT22;29610;49.022;12.114;2022-08-01T14:11:49;32.60;46.60
18794;DHT22;29610;49.022;12.114;2022-08-01T14:14:18;32.50;48.10
18794;DHT22;29610;49.022;12.114;2022-08-01T14:16:47;32.50;47.30
18794;DHT22;29610;49.022;12.114;2022-08-01T14:19:18;32.40;48.20
18794;DHT22;29610;49.022;12.114;2022-08-01T14:22:08;32.80;46.60
18794;DHT22;29610;49.022;12.114;2022-08-01T14:24:53;32.20;44.70
18794;DHT22;29610;49.022;12.114;2022-08-01T14:27:29;33.30;44.60
18794;DHT22;29610;49.022;12.114;2022-08-01T14:30:08;33.20;44.30
18794;DHT22;29610;49.022;12.114;2022-08-01T14:33:05;32.70;45.60
18794;DHT22;29610;49.022;12.114;2022-08-01T14:35:46;32.70;45.90
18794;DHT22;29610;49.022;12.114;2022-08-01T14:38:32;33.40;44.90
18794;DHT22;29610;49.022;12.114;2022-08-01T14:41:04;33.20;44.20
18794;DHT22;29610;49.022;12.114;2022-08-01T14:43:34;32.80;44.20
18794;DHT22;29610;49.022;12.114;2022-08-01T14:46:34;32.50;45.10
18794;DHT22;29610;49.022;12.114;2022-08-01T14:49:36;32.20;44.70
18794;DHT22;29610;49.022;12.114;2022-08-01T14:52:13;32.00;46.20
18794;DHT22;29610;49.022;12.114;2022-08-01T14:55:25;31.60;45.60
18794;DHT22;29610;49.022;12.114;2022-08-01T14:58:37;30.60;46.70
18794;DHT22;29610;49.022;12.114;2022-08-01T15:01:06;31.30;47.00
18794;DHT22;29610;49.022;12.114;2022-08-01T15:03:36;31.10;46.70
18794;DHT22;29610;49.022;12.114;2022-08-01T15:06:16;31.20;46.70
18794;DHT22;29610;49.022;12.114;2022-08-01T15:08:46;31.20;46.60
18794;DHT22;29610;49.022;12.114;2022-08-01T15:11:15;31.50;47.00
18794;DHT22;29610;49.022;12.114;2022-08-01T15:13:43;32.00;46.80
18794;DHT22;29610;49.022;12.114;2022-08-01T15:16:12;31.70;46.60
18794;DHT22;29610;49.022;12.114;2022-08-01T15:18:40;31.60;46.40
18794;DHT22;29610;49.022;12.114;2022-08-01T15:21:10;31.40;46.60
18794;DHT22;29610;49.022;12.114;2022-08-01T15:24:00;31.00;47.00
18794;DHT22;29610;49.022;12.114;2022-08-01T15:26:28;30.50;47.60
18794;DHT22;29610;49.022;12.114;2022-08-01T15:28:58;30.00;48.20
18794;DHT22;29610;49.022;12.114;2022-08-01T15:31:26;29.70;48.70
18794;DHT22;29610;49.022;12.114;2022-08-01T15:33:54;29.60;49.10
18794;DHT22;29610;49.022;12.114;2022-08-01T15:36:23;29.90;49.30
18794;DHT22;29610;49.022;12.114;2022-08-01T15:38:52;30.40;49.20
18794;DHT22;29610;49.022;12.114;2022-08-01T15:41:23;30.70;48.40
18794;DHT22;29610;49.022;12.114;2022-08-01T15:43:52;30.80;48.80
18794;DHT22;29610;49.022;12.114;2022-08-01T15:46:22;31.10;48.20
18794;DHT22;29610;49.022;12.114;2022-08-01T15:48:51;31.40;48.50
18794;DHT22;29610;49.022;12.114;2022-08-01T15:51:20;31.50;48.70
18794;DHT22;29610;49.022;12.114;2022-08-01T15:53:49;31.30;49.10
18794;DHT22;29610;49.022;12.114;2022-08-01T15:56:17;31.20;49.80
18794;DHT22;29610;49.022;12.114;2022-08-01T15:58:47;31.00;49.60
18794;DHT22;29610;49.022;12.114;2022-08-01T16:01:16;30.90;49.90
18794;DHT22;29610;49.022;12.114;2022-08-01T16:03:45;30.40;50.70
18794;DHT22;29610;49.022;12.114;2022-08-01T16:06:13;29.70;51.60
18794;DHT22;29610;49.022;12.114;2022-08-01T16:08:42;29.40;52.60
18794;DHT22;29610;49.022;12.114;2022-08-01T16:11:10;29.40;53.10
18794;DHT22;29610;49.022;12.114;2022-08-01T16:13:39;29.50;52.70
18794;DHT22;29610;49.022;12.114;2022-08-01T16:16:09;29.60;52.30
18794;DHT22;29610;49.022;12.114;2022-08-01T16:18:39;29.90;51.70
18794;DHT22;29610;49.022;12.114;2022-08-01T16:21:08;29.90;52.00
18794;DHT22;29610;49.022;12.114;2022-08-01T16:23:39;30.00;51.50
18794;DHT22;29610;49.022;12.114;2022-08-01T16:26:08;30.00;51.80
18794;DHT22;29610;49.022;12.114;2022-08-01T16:28:53;29.60;52.60
18794;DHT22;29610;49.022;12.114;2022-08-01T16:31:24;29.60;52.70
18794;DHT22;29610;49.022;12.114;2022-08-01T16:34:09;29.50;52.50
18794;DHT22;29610;49.022;12.114;2022-08-01T16:36:41;29.40;51.60
18794;DHT22;29610;49.022;12.114;2022-08-01T16:39:09;29.30;51.30
18794;DHT22;29610;49.022;12.114;2022-08-01T16:41:38;29.30;51.20
18794;DHT22;29610;49.022;12.114;2022-08-01T16:44:07;29.30;51.40
18794;DHT22;29610;49.022;12.114;2022-08-01T16:46:36;29.40;51.80
18794;DHT22;29610;49.022;12.114;2022-08-01T16:49:05;29.50;51.40
18794;DHT22;29610;49.022;12.114;2022-08-01T16:51:34;30.00;50.70
18794;DHT22;29610;49.022;12.114;2022-08-01T16:54:14;30.20;50.20
18794;DHT22;29610;49.022;12.114;2022-08-01T16:56:52;30.00;50.50
18794;DHT22;29610;49.022;12.114;2022-08-01T16:59:24;29.80;50.90
18794;DHT22;29610;49.022;12.114;2022-08-01T17:01:53;29.60;51.00
18794;DHT22;29610;49.022;12.114;2022-08-01T17:04:28;29.30;51.40
18794;DHT22;29610;49.022;12.114;2022-08-01T17:06:56;29.30;51.40
18794;DHT22;29610;49.022;12.114;2022-08-01T17:09:25;29.20;51.40
18794;DHT22;29610;49.022;12.114;2022-08-01T17:11:54;29.10;51.70
18794;DHT22;29610;49.022;12.114;2022-08-01T17:14:22;29.00;52.20
18794;DHT22;29610;49.022;12.114;2022-08-01T17:16:51;29.00;52.00
18794;DHT22;29610;49.022;12.114;2022-08-01T17:19:21;28.80;52.30
18794;DHT22;29610;49.022;12.114;2022-08-01T17:21:59;28.60;52.60
18794;DHT22;29610;49.022;12.114;2022-08-01T17:24:28;28.40;52.60
18794;DHT22;29610;49.022;12.114;2022-08-01T17:26:56;28.30;53.00
18794;DHT22;29610;49.022;12.114;2022-08-01T17:29:25;28.10;53.70
18794;DHT22;29610;49.022;12.114;2022-08-01T17:32:09;28.00;54.00
18794;DHT22;29610;49.022;12.114;2022-08-01T17:34:41;27.90;55.10
18794;DHT22;29610;49.022;12.114;2022-08-01T17:37:09;27.90;54.80
18794;DHT22;29610;49.022;12.114;2022-08-01T17:39:38;27.80;55.00
18794;DHT22;29610;49.022;12.114;2022-08-01T17:42:07;27.80;55.50
18794;DHT22;29610;49.022;12.114;2022-08-01T17:44:36;27.70;55.40
18794;DHT22;29610;49.022;12.114;2022-08-01T17:47:07;27.80;55.80
18794;DHT22;29610;49.022;12.114;2022-08-01T17:49:36;27.70;56.00
18794;DHT22;29610;49.022;12.114;2022-08-01T17:52:23;27.50;56.60
18794;DHT22;29610;49.022;12.114;2022-08-01T17:54:56;27.40;56.90
18794;DHT22;29610;49.022;12.114;2022-08-01T17:57:25;27.20;57.20
18794;DHT22;29610;49.022;12.114;2022-08-01T17:59:54;27.10;57.70
18794;DHT22;29610;49.022;12.114;2022-08-01T18:02:24;26.90;58.30
18794;DHT22;29610;49.022;12.114;2022-08-01T18:04:53;26.80;58.70
18794;DHT22;29610;49.022;12.114;2022-08-01T18:07:23;26.60;58.70
18794;DHT22;29610;49.022;12.114;2022-08-01T18:10:12;26.50;59.30
18794;DHT22;29610;49.022;12.114;2022-08-01T18:12:42;26.40;59.60
18794;DHT22;29610;49.022;12.114;2022-08-01T18:15:12;26.20;60.20
18794;DHT22;29610;49.022;12.114;2022-08-01T18:17:41;26.10;60.50
18794;DHT22;29610;49.022;12.114;2022-08-01T18:20:10;26.10;60.90
18794;DHT22;29610;49.022;12.114;2022-08-01T18:22:41;26.00;60.80
18794;DHT22;29610;49.022;12.114;2022-08-01T18:25:09;25.90;60.90
18794;DHT22;29610;49.022;12.114;2022-08-01T18:27:38;25.90;61.50
18794;DHT22;29610;49.022;12.114;2022-08-01T18:30:27;25.80;61.70
18794;DHT22;29610;49.022;12.114;2022-08-01T18:32:55;25.70;62.10
18794;DHT22;29610;49.022;12.114;2022-08-01T18:35:24;25.60;62.30
18794;DHT22;29610;49.022;12.114;2022-08-01T18:38:15;25.60;62.90
18794;DHT22;29610;49.022;12.114;2022-08-01T18:40:46;25.40;63.40
18794;DHT22;29610;49.022;12.114;2022-08-01T18:43:14;25.40;63.40
18794;DHT22;29610;49.022;12.114;2022-08-01T18:45:43;25.30;63.70
18794;DHT22;29610;49.022;12.114;2022-08-01T18:48:12;25.20;63.90
18794;DHT22;29610;49.022;12.114;2022-08-01T18:50:40;25.20;63.80
18794;DHT22;29610;49.022;12.114;2022-08-01T18:53:09;25.20;64.30
18794;DHT22;29610;49.022;12.114;2022-08-01T18:55:39;25.10;64.10
18794;DHT22;29610;49.022;12.114;2022-08-01T18:58:07;25.10;64.30
18794;DHT22;29610;49.022;12.114;2022-08-01T19:00:36;25.00;64.30
18794;DHT22;29610;49.022;12.114;2022-08-01T19:03:05;25.00;64.40
18794;DHT22;29610;49.022;12.114;2022-08-01T19:05:34;25.00;64.80
18794;DHT22;29610;49.022;12.114;2022-08-01T19:08:04;25.00;64.80
18794;DHT22;29610;49.022;12.114;2022-08-01T19:10:34;25.00;65.00
18794;DHT22;29610;49.022;12.114;2022-08-01T19:13:04;24.90;65.30
18794;DHT22;29610;49.022;12.114;2022-08-01T19:15:35;24.90;66.30
18794;DHT22;29610;49.022;12.114;2022-08-01T19:18:04;24.80;65.70
18794;DHT22;29610;49.022;12.114;2022-08-01T19:20:33;24.70;66.20
18794;DHT22;29610;49.022;12.114;2022-08-01T19:23:04;24.60;66.20
18794;DHT22;29610;49.022;12.114;2022-08-01T19:25:47;24.50;66.50
18794;DHT22;29610;49.022;12.114;2022-08-01T19:28:24;24.40;67.40
18794;DHT22;29610;49.022;12.114;2022-08-01T19:30:55;24.30;66.90
18794;DHT22;29610;49.022;12.114;2022-08-01T19:33:31;24.20;67.00
18794;DHT22;29610;49.022;12.114;2022-08-01T19:36:07;24.00;68.80
18794;DHT22;29610;49.022;12.114;2022-08-01T19:38:42;23.90;68.90
18794;DHT22;29610;49.022;12.114;2022-08-01T19:41:11;23.90;68.80
18794;DHT22;29610;49.022;12.114;2022-08-01T19:43:43;23.70;69.30
18794;DHT22;29610;49.022;12.114;2022-08-01T19:46:13;24.50;70.10
18794;DHT22;29610;49.022;12.114;2022-08-01T19:48:44;23.60;69.20
18794;DHT22;29610;49.022;12.114;2022-08-01T19:51:21;23.50;69.50
18794;DHT22;29610;49.022;12.114;2022-08-01T19:54:03;23.40;70.00
18794;DHT22;29610;49.022;12.114;2022-08-01T19:56:35;23.40;71.10
18794;DHT22;29610;49.022;12.114;2022-08-01T19:59:08;23.40;71.30
18794;DHT22;29610;49.022;12.114;2022-08-01T20:01:43;23.40;70.60
18794;DHT22;29610;49.022;12.114;2022-08-01T20:04:13;23.50;70.60
18794;DHT22;29610;49.022;12.114;2022-08-01T20:06:42;23.40;70.40
18794;DHT22;29610;49.022;12.114;2022-08-01T20:09:12;23.40;71.00
18794;DHT22;29610;49.022;12.114;2022-08-01T20:11:43;23.30;70.50
18794;DHT22;29610;49.022;12.114;2022-08-01T20:14:17;23.30;71.70
18794;DHT22;29610;49.022;12.114;2022-08-01T20:16:47;23.30;71.40
18794;DHT22;29610;49.022;12.114;2022-08-01T20:19:17;23.20;72.20
18794;DHT22;29610;49.022;12.114;2022-08-01T20:21:50;23.20;71.90
18794;DHT22;29610;49.022;12.114;2022-08-01T20:24:35;23.20;72.80
18794;DHT22;29610;49.022;12.114;2022-08-01T20:27:09;23.20;73.10
18794;DHT22;29610;49.022;12.114;2022-08-01T20:29:43;23.10;73.10
18794;DHT22;29610;49.022;12.114;2022-08-01T20:32:14;23.00;74.10
18794;DHT22;29610;49.022;12.114;2022-08-01T20:34:44;23.00;74.70
18794;DHT22;29610;49.022;12.114;2022-08-01T20:37:12;22.90;74.10
18794;DHT22;29610;49.022;12.114;2022-08-01T20:40:07;22.90;74.60
18794;DHT22;29610;49.022;12.114;2022-08-01T20:42:39;22.80;74.10
18794;DHT22;29610;49.022;12.114;2022-08-01T20:45:10;22.90;74.50
18794;DHT22;29610;49.022;12.114;2022-08-01T20:47:46;22.80;74.30
18794;DHT22;29610;49.022;12.114;2022-08-01T20:50:17;22.80;73.70
18794;DHT22;29610;49.022;12.114;2022-08-01T20:53:21;22.70;75.10
18794;DHT22;29610;49.022;12.114;2022-08-01T20:55:57;22.70;75.70
18794;DHT22;29610;49.022;12.114;2022-08-01T20:58:39;22.60;75.60
18794;DHT22;29610;49.022;12.114;2022-08-01T21:01:28;22.40;75.20
18794;DHT22;29610;49.022;12.114;2022-08-01T21:04:11;22.30;77.70
18794;DHT22;29610;49.022;12.114;2022-08-01T21:06:52;22.20;78.30
18794;DHT22;29610;49.022;12.114;2022-08-01T21:09:23;22.20;78.30
18794;DHT22;29610;49.022;12.114;2022-08-01T21:12:06;21.90;78.40
18794;DHT22;29610;49.022;12.114;2022-08-01T21:14:50;21.70;79.00
18794;DHT22;29610;49.022;12.114;2022-08-01T21:17:31;21.60;79.20
18794;DHT22;29610;49.022;12.114;2022-08-01T21:20:12;21.40;78.70
18794;DHT22;29610;49.022;12.114;2022-08-01T21:22:51;21.40;80.00
18794;DHT22;29610;49.022;12.114;2022-08-01T21:25:27;21.50;80.10
18794;DHT22;29610;49.022;12.114;2022-08-01T21:28:00;21.60;80.20
18794;DHT22;29610;49.022;12.114;2022-08-01T21:30:31;21.70;80.10
18794;DHT22;29610;49.022;12.114;2022-08-01T21:33:04;21.70;78.80
18794;DHT22;29610;49.022;12.114;2022-08-01T21:35:35;21.60;79.50
18794;DHT22;29610;49.022;12.114;2022-08-01T21:38:06;21.60;80.20
18794;DHT22;29610;49.022;12.114;2022-08-01T21:40:36;21.70;80.70
18794;DHT22;29610;49.022;12.114;2022-08-01T21:43:06;21.70;80.80
18794;DHT22;29610;49.022;12.114;2022-08-01T21:45:37;21.80;81.00
18794;DHT22;29610;49.022;12.114;2022-08-01T21:48:26;21.70;81.40
18794;DHT22;29610;49.022;12.114;2022-08-01T21:50:59;21.70;81.30
18794;DHT22;29610;49.022;12.114;2022-08-01T21:53:38;21.70;81.10
18794;DHT22;29610;49.022;12.114;2022-08-01T21:56:22;21.60;81.20
18794;DHT22;29610;49.022;12.114;2022-08-01T21:59:06;21.60;81.90
18794;DHT22;29610;49.022;12.114;2022-08-01T22:01:40;21.50;81.80
18794;DHT22;29610;49.022;12.114;2022-08-01T22:04:28;21.50;82.60
18794;DHT22;29610;49.022;12.114;2022-08-01T22:07:08;21.50;82.90
18794;DHT22;29610;49.022;12.114;2022-08-01T22:09:44;21.30;82.00
18794;DHT22;29610;49.022;12.114;2022-08-01T22:12:46;21.10;82.80
18794;DHT22;29610;49.022;12.114;2022-08-01T22:16:32;20.90;82.90
18794;DHT22;29610;49.022;12.114;2022-08-01T22:20:06;20.80;82.90
18794;DHT22;29610;49.022;12.114;2022-08-01T22:23:22;20.60;83.40
18794;DHT22;29610;49.022;12.114;2022-08-01T22:25:52;20.50;85.20
18794;DHT22;29610;49.022;12.114;2022-08-01T22:28:22;20.50;85.30
18794;DHT22;29610;49.022;12.114;2022-08-01T22:30:51;20.50;85.80
18794;DHT22;29610;49.022;12.114;2022-08-01T22:33:21;20.50;86.10
18794;DHT22;29610;49.022;12.114;2022-08-01T22:35:54;20.50;85.60
18794;DHT22;29610;49.022;12.114;2022-08-01T22:38:23;20.40;85.60
18794;DHT22;29610;49.022;12.114;2022-08-01T22:40:53;20.40;86.70
18794;DHT22;29610;49.022;12.114;2022-08-01T22:43:37;20.40;86.80
18794;DHT22;29610;49.022;12.114;2022-08-01T22:46:17;20.30;86.90
18794;DHT22;29610;49.022;12.114;2022-08-01T22:48:54;20.20;86.30
18794;DHT22;29610;49.022;12.114;2022-08-01T22:51:37;20.10;86.80
18794;DHT22;29610;49.022;12.114;2022-08-01T22:54:24;20.10;87.70
18794;DHT22;29610;49.022;12.114;2022-08-01T22:57:02;20.00;88.30
18794;DHT22;29610;49.022;12.114;2022-08-01T22:59:40;20.00;88.50
18794;DHT22;29610;49.022;12.114;2022-08-01T23:02:14;20.00;89.60
18794;DHT22;29610;49.022;12.114;2022-08-01T23:04:45;20.10;89.60
18794;DHT22;29610;49.022;12.114;2022-08-01T23:07:21;19.90;89.40
18794;DHT22;29610;49.022;12.114;2022-08-01T23:09:56;19.90;89.30
18794;DHT22;29610;49.022;12.114;2022-08-01T23:12:26;19.90;89.10
18794;DHT22;29610;49.022;12.114;2022-08-01T23:14:56;19.80;88.70
18794;DHT22;29610;49.022;12.114;2022-08-01T23:17:28;19.80;89.20
18794;DHT22;29610;49.022;12.114;2022-08-01T23:19:58;19.80;89.00
18794;DHT22;29610;49.022;12.114;2022-08-01T23:22:31;19.80;89.10
18794;DHT22;29610;49.022;12.114;2022-08-01T23:25:02;19.70;89.10
18794;DHT22;29610;49.022;12.114;2022-08-01T23:27:36;19.70;88.40
18794;DHT22;29610;49.022;12.114;2022-08-01T23:30:29;19.60;89.00
18794;DHT22;29610;49.022;12.114;2022-08-01T23:33:00;19.50;89.80
18794;DHT22;29610;49.022;12.114;2022-08-01T23:35:29;19.50;90.40
18794;DHT22;29610;49.022;12.114;2022-08-01T23:38:06;19.50;90.50
18794;DHT22;29610;49.022;12.114;2022-08-01T23:40:37;19.50;91.10
18794;DHT22;29610;49.022;12.114;2022-08-01T23:43:06;19.50;91.50
18794;DHT22;29610;49.022;12.114;2022-08-01T23:45:43;19.60;91.90
18794;DHT22;29610;49.022;12.114;2022-08-01T23:48:32;19.70;92.20
18794;DHT22;29610;49.022;12.114;2022-08-01T23:51:04;19.70;92.70
18794;DHT22;29610;49.022;12.114;2022-08-01T23:53:36;19.70;92.70
18794;DHT22;29610;49.022;12.114;2022-08-01T23:56:05;19.70;92.90
18794;DHT22;29610;49.022;12.114;2022-08-01T23:58:33;19.70;93.20
